Time;durP1;ratioP1;P1;durP2;ratioP2;P2;SDS_P1;SDS_P2;PMS_P1;PMS_P2;Temp;Humidity;BMP_temperature;BMP_pressure;BME280_temperature;BME280_humidity;BME280_pressure;Samples;Min_cycle;Max_cycle;Signal;HPM_P1;HPM_P2
2023/04/10 00:02:22;;;;;;;25.13;12.77;;;;;;;10.72;36.29;100720.00;5031988;28;20040;-58
2023/04/10 00:04:48;;;;;;;24.48;12.25;;;;;;;10.68;36.35;100718.50;5032321;28;20030;-55
2023/04/10 00:07:13;;;;;;;16.73;12.30;;;;;;;10.55;36.74;100688.13;5032181;28;20073;-56
2023/04/10 00:09:39;;;;;;;19.00;11.77;;;;;;;10.76;36.17;100721.50;5031555;28;20115;-57
2023/04/10 00:12:05;;;;;;;25.75;12.38;;;;;;;10.79;35.97;100724.94;5032476;28;20026;-56
2023/04/10 00:14:30;;;;;;;19.48;11.82;;;;;;;10.76;35.56;100721.50;5032217;28;20060;-58
2023/04/10 00:16:56;;;;;;;20.48;11.90;;;;;;;10.81;35.55;100720.34;5031924;28;20029;-58
2023/04/10 00:19:21;;;;;;;16.90;11.98;;;;;;;10.82;35.37;100719.38;5030747;28;20040;-60
2023/04/10 00:21:47;;;;;;;21.08;11.90;;;;;;;10.83;35.68;100710.38;5030881;28;20036;-57
2023/04/10 00:24:12;;;;;;;15.38;11.00;;;;;;;10.90;35.61;100727.78;5031851;28;20118;-54
2023/04/10 00:26:38;;;;;;;18.30;11.40;;;;;;;10.86;35.69;100726.28;5032410;28;20040;-61
2023/04/10 00:29:04;;;;;;;19.23;11.98;;;;;;;10.92;35.67;100736.56;5032427;28;20031;-59
2023/04/10 00:31:30;;;;;;;19.33;12.18;;;;;;;10.94;35.79;100740.00;4996177;28;20393;-55
2023/04/10 00:33:56;;;;;;;19.17;12.48;;;;;;;10.94;35.72;100742.69;5012440;28;20029;-55
2023/04/10 00:36:21;;;;;;;20.70;12.32;;;;;;;10.95;35.90;100731.00;5012381;28;20113;-58
2023/04/10 00:38:48;;;;;;;18.25;12.90;;;;;;;10.96;36.40;100740.75;5012030;28;20046;-57
2023/04/10 00:41:14;;;;;;;21.90;13.93;;;;;;;10.95;36.07;100733.69;5022390;28;20045;-55
2023/04/10 00:43:39;;;;;;;20.02;13.80;;;;;;;10.98;35.88;100732.63;5032207;28;20090;-53
2023/04/10 00:46:06;;;;;;;22.58;14.38;;;;;;;10.80;36.35;100710.59;5031998;28;20033;-61
2023/04/10 00:48:32;;;;;;;23.17;14.70;;;;;;;10.93;36.15;100732.94;5034223;28;20100;-56
2023/04/10 00:50:59;;;;;;;18.98;13.65;;;;;;;10.95;36.81;100736.34;5035450;28;20436;-57
2023/04/10 00:53:24;;;;;;;24.52;14.40;;;;;;;10.93;36.51;100737.41;5035491;28;20124;-58
2023/04/10 00:55:51;;;;;;;23.13;15.05;;;;;;;10.71;37.19;100707.59;5034434;28;20121;-55
2023/04/10 00:58:17;;;;;;;21.10;14.82;;;;;;;10.86;37.13;100734.31;5035314;28;20114;-52
2023/04/10 01:00:42;;;;;;;24.95;15.25;;;;;;;10.83;37.42;100735.38;5034616;28;20510;-54
2023/04/10 01:03:10;;;;;;;22.17;14.55;;;;;;;10.81;37.33;100736.41;5029632;28;20033;-56
2023/04/10 01:05:44;;;;;;;25.92;15.13;;;;;;;10.82;37.51;100740.81;5024386;28;20318;-54
2023/04/10 01:08:27;;;;;;;22.70;14.52;;;;;;;10.75;37.58;100738.56;5035697;28;20025;-64
2023/04/10 01:11:04;;;;;;;21.63;15.07;;;;;;;10.81;37.66;100728.38;5035426;28;20154;-54
2023/04/10 01:13:39;;;;;;;23.92;14.77;;;;;;;10.80;37.46;100729.34;5035187;28;20037;-55
2023/04/10 01:16:20;;;;;;;22.15;13.88;;;;;;;10.77;37.70;100720.56;5035025;28;20030;-55
2023/04/10 01:18:52;;;;;;;26.70;15.30;;;;;;;10.76;38.52;100723.34;5035276;28;20037;-56
2023/04/10 01:21:21;;;;;;;24.88;15.02;;;;;;;10.77;38.11;100723.22;5017597;28;20026;-57
2023/04/10 01:24:04;;;;;;;25.25;15.15;;;;;;;10.84;38.23;100733.53;5014901;28;20034;-56
2023/04/10 01:26:51;;;;;;;23.98;14.63;;;;;;;10.86;37.78;100734.31;5028572;28;20074;-56
2023/04/10 01:29:19;;;;;;;25.67;14.27;;;;;;;10.79;38.01;100735.66;5035295;28;20045;-59
2023/04/10 01:32:10;;;;;;;24.58;15.05;;;;;;;10.88;37.61;100740.44;5035179;28;20040;-56
2023/04/10 01:34:39;;;;;;;20.23;14.38;;;;;;;10.75;38.34;100735.03;5033668;28;20026;-55
2023/04/10 01:37:11;;;;;;;25.17;15.57;;;;;;;10.74;38.19;100733.31;5034462;28;20073;-55
2023/04/10 01:39:41;;;;;;;19.90;15.20;;;;;;;10.60;38.11;100704.75;5035050;28;20441;-55
2023/04/10 01:42:09;;;;;;;23.25;14.95;;;;;;;10.77;38.30;100747.34;5035146;28;20120;-55
2023/04/10 01:44:39;;;;;;;29.58;15.68;;;;;;;10.61;38.33;100704.66;5034406;28;20071;-55
2023/04/10 01:47:06;;;;;;;23.90;16.00;;;;;;;10.75;38.00;100735.88;5032532;28;20045;-54
2023/04/10 01:49:32;;;;;;;24.98;15.15;;;;;;;10.73;38.52;100731.56;5034544;28;20811;-56
2023/04/10 01:51:59;;;;;;;26.08;15.40;;;;;;;10.72;38.29;100730.72;5034389;28;20050;-52
2023/04/10 01:54:30;;;;;;;25.83;15.18;;;;;;;10.72;38.17;100744.13;5034132;28;20135;-55
2023/04/10 01:56:58;;;;;;;28.92;15.65;;;;;;;10.69;38.38;100738.97;5034163;28;20044;-55
2023/04/10 01:59:23;;;;;;;25.00;15.98;;;;;;;10.64;38.46;100733.06;5033463;28;20063;-58
2023/04/10 02:01:58;;;;;;;29.77;16.40;;;;;;;10.53;38.88;100700.78;5027654;28;20033;-53
2023/04/10 02:04:27;;;;;;;21.95;15.77;;;;;;;10.60;38.86;100721.69;5014247;28;20053;-56
2023/04/10 02:07:03;;;;;;;28.42;16.13;;;;;;;10.71;38.55;100738.84;5014270;28;20034;-57
2023/04/10 02:09:39;;;;;;;26.15;16.17;;;;;;;10.71;38.59;100737.03;5014317;28;20098;-56
2023/04/10 02:12:09;;;;;;;23.48;16.15;;;;;;;10.62;38.62;100741.19;5014139;28;20060;-55
2023/04/10 02:14:40;;;;;;;31.27;16.08;;;;;;;10.66;38.95;100740.97;5014238;28;20167;-56
2023/04/10 02:17:08;;;;;;;27.48;16.45;;;;;;;10.46;38.88;100700.31;5017105;28;20090;-58
2023/04/10 02:19:34;;;;;;;27.58;17.42;;;;;;;10.59;38.98;100735.16;5014587;28;20142;-58
2023/04/10 02:22:00;;;;;;;27.13;17.58;;;;;;;10.61;39.67;100741.31;5014225;28;20040;-59
2023/04/10 02:24:26;;;;;;;28.90;17.30;;;;;;;10.59;39.81;100740.53;5013896;28;20026;-58
2023/04/10 02:26:52;;;;;;;25.48;16.58;;;;;;;10.54;39.74;100729.25;5013955;28;20073;-53
2023/04/10 02:29:18;;;;;;;30.92;18.00;;;;;;;10.58;40.21;100733.44;5013954;28;20353;-54
2023/04/10 02:31:45;;;;;;;26.73;17.13;;;;;;;10.48;40.56;100722.50;5014120;28;20030;-52
2023/04/10 02:34:11;;;;;;;30.67;17.40;;;;;;;10.56;40.70;100738.06;5019015;28;20061;-56
2023/04/10 02:36:37;;;;;;;31.00;16.55;;;;;;;10.55;41.07;100730.97;5032790;28;20030;-56
2023/04/10 02:39:03;;;;;;;29.50;17.38;;;;;;;10.52;41.46;100723.16;5033305;28;20041;-58
2023/04/10 02:41:29;;;;;;;28.42;17.25;;;;;;;10.51;42.33;100734.81;5013612;28;20139;-52
2023/04/10 02:43:55;;;;;;;28.02;17.67;;;;;;;10.45;43.03;100720.88;5013512;28;20488;-55
2023/04/10 02:46:21;;;;;;;30.80;17.73;;;;;;;10.47;43.34;100735.03;5014103;28;20125;-59
2023/04/10 02:48:46;;;;;;;34.40;17.75;;;;;;;10.46;43.59;100729.75;5032739;28;20030;-60
2023/04/10 02:51:12;;;;;;;30.20;18.17;;;;;;;10.45;43.99;100730.72;5022245;28;20073;-56
2023/04/10 02:53:38;;;;;;;34.88;17.52;;;;;;;10.33;43.99;100709.13;5013165;28;20103;-59
2023/04/10 02:56:05;;;;;;;29.38;16.85;;;;;;;10.44;45.05;100732.56;5013849;28;20071;-59
2023/04/10 02:58:31;;;;;;;37.17;17.05;;;;;;;10.50;44.72;100741.13;5013512;28;20038;-56
2023/04/10 03:00:57;;;;;;;29.67;17.10;;;;;;;10.50;46.08;100741.13;5013146;28;20441;-58
2023/04/10 03:03:22;;;;;;;20.08;15.25;;;;;;;10.53;45.67;100732.91;5014386;28;20022;-56
2023/04/10 03:05:51;;;;;;;23.45;15.57;;;;;;;10.56;45.71;100719.31;5012654;28;20065;-54
2023/04/10 03:08:16;;;;;;;22.83;13.98;;;;;;;10.69;45.87;100724.72;5012636;28;20476;-64
2023/04/10 03:10:47;;;;;;;12.80;7.78;;;;;;;10.87;44.17;100728.84;5011572;28;20053;-52
2023/04/10 03:13:14;;;;;;;9.38;7.07;;;;;;;10.96;44.21;100732.72;5012575;28;20110;-55
2023/04/10 03:15:39;;;;;;;20.05;10.23;;;;;;;11.01;44.87;100730.56;5013343;28;20030;-57
2023/04/10 03:18:05;;;;;;;15.52;9.85;;;;;;;11.10;44.84;100717.53;5012141;28;20053;-56
2023/04/10 03:20:35;;;;;;;16.58;10.70;;;;;;;11.21;44.66;100717.63;5012854;28;20038;-56
2023/04/10 03:23:02;;;;;;;17.02;11.02;;;;;;;11.19;45.25;100714.19;5012929;28;20468;-56
2023/04/10 03:25:27;;;;;;;16.80;11.13;;;;;;;11.23;45.16;100707.66;5014103;28;20030;-52
2023/04/10 03:27:53;;;;;;;16.83;10.90;;;;;;;11.45;44.30;100724.94;5012007;28;20045;-56
2023/04/10 03:30:18;;;;;;;15.15;11.32;;;;;;;11.70;44.13;100725.88;5012780;28;20029;-59
2023/04/10 03:32:44;;;;;;;18.88;10.90;;;;;;;11.88;43.69;100721.91;5013169;28;20338;-58
2023/04/10 03:35:09;;;;;;;15.95;10.45;;;;;;;11.99;43.34;100717.56;5013293;28;20068;-53
2023/04/10 03:37:35;;;;;;;11.73;9.18;;;;;;;12.13;42.34;100719.28;5012885;28;20026;-58
2023/04/10 03:40:05;;;;;;;15.75;10.45;;;;;;;12.28;42.31;100723.53;5012856;28;20433;-55
2023/04/10 03:42:31;;;;;;;13.20;10.00;;;;;;;12.19;42.55;100708.94;5018172;28;20392;-58
2023/04/10 03:44:56;;;;;;;13.63;9.80;;;;;;;12.28;42.63;100714.59;5032988;28;20109;-57
2023/04/10 03:47:21;;;;;;;11.88;9.57;;;;;;;12.40;42.53;100726.25;5021548;28;20033;-59
2023/04/10 03:49:47;;;;;;;11.60;9.90;;;;;;;12.89;41.45;100733.31;5012734;28;20030;-58
2023/04/10 03:52:12;;;;;;;15.98;10.10;;;;;;;13.64;39.69;100704.28;5012456;28;20045;-61
2023/04/10 03:54:39;;;;;;;14.35;9.48;;;;;;;14.53;37.63;100717.88;5012469;28;20060;-59
2023/04/10 03:57:05;;;;;;;15.05;9.65;;;;;;;15.07;35.56;100714.22;5012507;28;20053;-54
2023/04/10 03:59:30;;;;;;;13.85;10.15;;;;;;;15.70;35.70;100717.00;5012089;28;20038;-54
2023/04/10 04:01:56;;;;;;;14.18;10.18;;;;;;;16.27;34.13;100698.41;5031088;28;20026;-53
2023/04/10 04:04:21;;;;;;;12.40;9.93;;;;;;;16.81;33.57;100713.38;5040651;28;20030;-54
2023/04/10 04:06:47;;;;;;;12.85;10.10;;;;;;;17.04;33.36;100713.97;5040627;28;20025;-58
2023/04/10 04:09:13;;;;;;;14.63;10.88;;;;;;;17.62;32.46;100722.94;5038942;28;20036;-55
2023/04/10 04:11:38;;;;;;;15.57;11.65;;;;;;;18.45;31.40;100713.97;5038847;28;20055;-56
2023/04/10 04:14:04;;;;;;;15.07;11.15;;;;;;;18.77;30.27;100712.56;5040677;28;20030;-54
2023/04/10 04:16:29;;;;;;;20.10;11.40;;;;;;;18.48;30.60;100708.25;5040157;28;20032;-59
2023/04/10 04:18:55;;;;;;;14.73;11.55;;;;;;;18.17;31.04;100711.31;5042033;28;20025;-58
2023/04/10 04:21:20;;;;;;;17.63;10.95;;;;;;;18.10;31.06;100703.94;5041288;28;20048;-65
2023/04/10 04:23:45;;;;;;;19.73;11.02;;;;;;;17.94;31.44;100713.53;5043664;28;20048;-56
2023/04/10 04:26:11;;;;;;;24.77;11.13;;;;;;;17.78;31.77;100711.47;5043779;28;20069;-62
2023/04/10 04:28:36;;;;;;;19.20;10.73;;;;;;;17.72;31.52;100706.66;5043451;28;20451;-56
2023/04/10 04:31:02;;;;;;;17.33;10.90;;;;;;;18.40;30.98;100716.31;5042880;28;20025;-56
2023/04/10 04:33:27;;;;;;;13.73;10.02;;;;;;;20.04;27.21;100709.53;5044550;28;20162;-56
2023/04/10 04:35:52;;;;;;;13.55;9.88;;;;;;;21.46;25.25;100713.19;5044322;28;20108;-56
2023/04/10 04:38:19;;;;;;;10.82;9.27;;;;;;;22.98;23.39;100700.31;5043773;28;20033;-55
2023/04/10 04:40:44;;;;;;;16.63;9.60;;;;;;;23.61;22.23;100711.00;5044499;28;20112;-56
2023/04/10 04:43:10;;;;;;;14.75;10.55;;;;;;;23.67;22.08;100715.72;5045615;28;20453;-56
2023/04/10 04:45:36;;;;;;;14.88;9.48;;;;;;;23.26;22.39;100713.41;5042046;28;20021;-55
2023/04/10 04:48:01;;;;;;;11.07;9.05;;;;;;;22.56;22.98;100708.88;5044155;28;20044;-60
2023/04/10 04:50:27;;;;;;;11.40;8.80;;;;;;;21.71;23.19;100715.91;5043922;28;20435;-57
2023/04/10 04:52:53;;;;;;;11.32;8.85;;;;;;;20.77;24.23;100690.81;5045358;28;20128;-57
2023/04/10 04:55:18;;;;;;;13.10;8.85;;;;;;;20.18;25.67;100709.91;5040403;28;20029;-54
2023/04/10 04:57:44;;;;;;;17.60;9.27;;;;;;;19.60;26.45;100715.94;5040693;28;20167;-58
2023/04/10 05:00:10;;;;;;;11.05;8.68;;;;;;;18.93;26.60;100683.88;5041663;28;20627;-57
2023/04/10 05:02:35;;;;;;;9.35;8.35;;;;;;;18.79;27.18;100720.56;5045082;28;20413;-53
2023/04/10 05:05:01;;;;;;;11.57;9.77;;;;;;;18.82;27.62;100717.53;5043389;28;20036;-52
2023/04/10 05:07:26;;;;;;;15.20;10.48;;;;;;;19.85;27.15;100723.34;5043463;28;20024;-54
2023/04/10 05:09:52;;;;;;;14.32;10.70;;;;;;;20.66;25.87;100723.78;5044907;28;20025;-61
2023/04/10 05:12:17;;;;;;;15.20;11.65;;;;;;;22.15;23.80;100723.53;5041141;28;20021;-57
2023/04/10 05:14:43;;;;;;;17.48;10.45;;;;;;;23.69;21.88;100690.94;5035693;28;20116;-57
2023/04/10 05:17:09;;;;;;;15.13;10.15;;;;;;;24.51;20.94;100716.34;5034906;28;20449;-56
2023/04/10 05:19:34;;;;;;;21.35;11.90;;;;;;;25.12;20.25;100727.91;5035168;28;20029;-57
2023/04/10 05:22:00;;;;;;;15.60;10.07;;;;;;;26.36;19.00;100717.25;5035094;28;20040;-56
2023/04/10 05:24:25;;;;;;;17.58;11.05;;;;;;;28.32;17.24;100723.41;5034741;28;20096;-58
2023/04/10 05:26:50;;;;;;;14.80;10.35;;;;;;;30.29;15.05;100702.09;5024828;28;20450;-57
2023/04/10 05:29:16;;;;;;;19.33;9.23;;;;;;;31.92;13.36;100730.44;5015055;28;20531;-53
2023/04/10 05:31:41;;;;;;;12.88;8.40;;;;;;;32.69;13.08;100726.66;5014973;28;20415;-55
2023/04/10 05:34:07;;;;;;;9.77;8.05;;;;;;;32.46;13.17;100726.53;5014300;28;20025;-55
2023/04/10 05:36:32;;;;;;;10.63;7.93;;;;;;;32.57;12.85;100723.97;5050712;28;20121;-57
2023/04/10 05:38:58;;;;;;;12.93;7.93;;;;;;;33.46;11.73;100732.66;5054442;28;20352;-54
2023/04/10 05:41:23;;;;;;;7.80;6.60;;;;;;;33.00;11.89;100730.81;5037431;28;20038;-53
2023/04/10 05:43:49;;;;;;;10.10;6.80;;;;;;;31.98;12.62;100733.31;5014617;28;20187;-56
2023/04/10 05:46:15;;;;;;;7.68;6.68;;;;;;;30.72;13.42;100734.22;5014467;28;20036;-57
2023/04/10 05:48:40;;;;;;;11.13;8.07;;;;;;;29.91;13.76;100729.75;5014239;28;20372;-54
2023/04/10 05:51:06;;;;;;;11.13;7.32;;;;;;;29.57;14.24;100732.03;5023395;28;20043;-56
2023/04/10 05:53:32;;;;;;;9.25;7.50;;;;;;;29.29;14.59;100729.72;5034179;28;20030;-54
2023/04/10 05:55:58;;;;;;;10.38;8.20;;;;;;;28.60;15.34;100730.47;5034100;28;20061;-57
2023/04/10 05:58:27;;;;;;;13.27;8.35;;;;;;;28.38;15.30;100730.78;5032270;28;20021;-62
2023/04/10 06:00:53;;;;;;;9.80;8.77;;;;;;;28.60;15.20;100730.47;5018751;28;20072;-61
2023/04/10 06:03:19;;;;;;;11.20;9.45;;;;;;;29.59;13.82;100712.50;5034292;28;20065;-58
2023/04/10 06:05:45;;;;;;;13.50;9.27;;;;;;;29.99;13.67;100734.09;5030666;28;20042;-54
2023/04/10 06:08:10;;;;;;;12.80;8.63;;;;;;;29.17;14.26;100736.00;5033646;28;20087;-54
2023/04/10 06:10:36;;;;;;;14.40;8.52;;;;;;;28.06;15.48;100741.72;5033999;28;20119;-56
2023/04/10 06:13:01;;;;;;;10.20;8.90;;;;;;;26.81;16.60;100727.66;5032656;28;20030;-55
2023/04/10 06:15:27;;;;;;;11.60;8.82;;;;;;;25.60;18.04;100741.78;5033627;28;20109;-51
2023/04/10 06:17:53;;;;;;;11.27;9.15;;;;;;;24.52;18.35;100737.22;5034095;28;20040;-53
2023/04/10 06:20:19;;;;;;;14.15;10.57;;;;;;;23.93;19.35;100742.56;5034202;28;20026;-58
2023/04/10 06:22:44;;;;;;;13.70;9.20;;;;;;;23.54;19.85;100742.88;5018377;28;20064;-54
2023/04/10 06:25:10;;;;;;;9.65;8.52;;;;;;;23.25;20.36;100733.53;5013950;28;20030;-54
2023/04/10 06:27:36;;;;;;;10.27;8.60;;;;;;;22.78;21.10;100744.50;5014167;28;20038;-54
2023/04/10 06:30:01;;;;;;;11.23;8.30;;;;;;;22.17;21.47;100723.38;5012911;28;20056;-58
2023/04/10 06:32:30;;;;;;;10.10;7.80;;;;;;;21.79;22.31;100746.69;5014061;28;20021;-53
2023/04/10 06:34:56;;;;;;;15.00;8.75;;;;;;;21.59;22.47;100735.31;5013791;28;20029;-61
2023/04/10 06:37:30;;;;;;;13.45;9.40;;;;;;;22.12;22.12;100751.19;5026553;28;20514;-54
2023/04/10 06:40:07;;;;;;;15.90;10.23;;;;;;;22.51;21.77;100747.59;5033802;28;20124;-63
2023/04/10 06:42:33;;;;;;;17.42;10.88;;;;;;;22.73;21.65;100727.81;5015677;28;20100;-54
2023/04/10 06:44:59;;;;;;;15.30;10.20;;;;;;;23.16;21.14;100735.53;5012721;28;20416;-55
2023/04/10 06:47:24;;;;;;;11.13;9.95;;;;;;;23.34;21.12;100749.69;5016644;28;20442;-58
2023/04/10 06:49:50;;;;;;;14.38;8.75;;;;;;;23.25;20.76;100739.00;5032934;28;20091;-59
2023/04/10 06:52:16;;;;;;;17.02;9.02;;;;;;;22.82;21.20;100754.06;5033289;28;20041;-55
2023/04/10 06:54:42;;;;;;;14.73;8.68;;;;;;;22.14;21.48;100746.38;5031603;28;20076;-53
2023/04/10 06:57:07;;;;;;;13.30;8.52;;;;;;;21.85;22.14;100755.22;5033496;28;20053;-54
2023/04/10 06:59:34;;;;;;;12.10;8.55;;;;;;;22.00;21.83;100747.16;5033304;28;20025;-54
2023/04/10 07:02:01;;;;;;;12.63;7.97;;;;;;;23.17;20.64;100743.50;5032933;28;20365;-53
2023/04/10 07:04:27;;;;;;;13.80;7.55;;;;;;;25.22;18.75;100756.66;5033301;28;20048;-65
2023/04/10 07:06:52;;;;;;;9.90;8.05;;;;;;;26.09;17.40;100755.53;5033536;28;20029;-64
2023/04/10 07:09:17;;;;;;;12.35;7.57;;;;;;;25.84;17.77;100753.31;5032546;28;20052;-64
2023/04/10 07:11:43;;;;;;;11.20;8.30;;;;;;;25.03;18.50;100749.09;5032712;28;20095;-63
2023/04/10 07:14:08;;;;;;;11.60;7.75;;;;;;;23.92;19.58;100742.75;5025977;28;20034;-63
2023/04/10 07:16:34;;;;;;;10.20;8.35;;;;;;;22.88;20.49;100744.25;5013442;28;20029;-63
2023/04/10 07:18:59;;;;;;;10.73;7.90;;;;;;;22.18;21.58;100761.38;5013224;28;20437;-63
2023/04/10 07:21:26;;;;;;;11.95;8.75;;;;;;;21.54;22.08;100748.63;5013440;28;20463;-63
2023/04/10 07:23:52;;;;;;;12.48;8.13;;;;;;;21.13;22.88;100754.09;5013323;28;20036;-64
2023/04/10 07:26:17;;;;;;;15.70;8.27;;;;;;;21.11;22.67;100732.50;5013410;28;20076;-64
2023/04/10 07:28:43;;;;;;;12.02;8.27;;;;;;;22.73;21.05;100753.25;5013209;28;20057;-64
2023/04/10 07:31:09;;;;;;;13.20;8.73;;;;;;;24.34;19.38;100748.56;5012086;28;20038;-64
2023/04/10 07:33:36;;;;;;;14.73;8.88;;;;;;;25.65;17.84;100761.22;5012782;28;20033;-64
2023/04/10 07:36:02;;;;;;;17.25;9.80;;;;;;;28.09;16.08;100749.53;5013182;28;20026;-64
2023/04/10 07:38:27;;;;;;;16.00;9.40;;;;;;;30.01;14.40;100737.50;5021888;28;20514;-63
2023/04/10 07:40:57;;;;;;;13.55;9.60;;;;;;;31.80;12.93;100757.28;5032550;28;20503;-63
2023/04/10 07:43:22;;;;;;;13.18;9.52;;;;;;;33.33;11.76;100754.09;5031517;28;20511;-63
2023/04/10 07:45:48;;;;;;;12.52;9.52;;;;;;;33.06;11.33;100754.78;5031421;28;20041;-64
2023/04/10 07:48:13;;;;;;;11.55;9.07;;;;;;;31.31;12.52;100757.56;5030729;28;20052;-63
2023/04/10 07:50:39;;;;;;;13.35;8.77;;;;;;;29.06;13.77;100718.28;5030194;28;20421;-62
2023/04/10 07:53:06;;;;;;;9.95;8.95;;;;;;;27.82;15.02;100746.88;5026452;28;20462;-65
2023/04/10 07:55:38;;;;;;;13.07;9.23;;;;;;;26.84;15.82;100762.97;5007221;28;20058;-65
2023/04/10 07:58:05;;;;;;;17.55;10.07;;;;;;;25.49;17.46;100750.53;5029707;28;20037;-63
2023/04/10 08:00:31;;;;;;;20.02;10.02;;;;;;;24.64;18.37;100749.31;5036026;28;20403;-64
2023/04/10 08:02:56;;;;;;;15.63;9.90;;;;;;;24.13;18.57;100741.16;5035555;28;20498;-66
2023/04/10 08:05:22;;;;;;;18.15;10.32;;;;;;;23.71;19.34;100749.00;5034752;28;20033;-65
2023/04/10 08:07:47;;;;;;;16.63;10.30;;;;;;;23.53;19.43;100739.25;5035706;28;20087;-63
2023/04/10 08:10:13;;;;;;;15.32;10.05;;;;;;;23.43;19.47;100744.16;5035778;28;20091;-64
2023/04/10 08:12:38;;;;;;;13.48;10.05;;;;;;;23.35;19.55;100751.38;5034568;28;20033;-67
2023/04/10 08:15:04;;;;;;;14.30;10.00;;;;;;;23.20;19.36;100734.94;5035023;28;20112;-70
2023/04/10 08:17:30;;;;;;;16.77;10.20;;;;;;;23.03;19.87;100749.78;5035036;28;20041;-64
2023/04/10 08:19:55;;;;;;;12.85;10.45;;;;;;;22.86;20.02;100735.41;5035778;28;20100;-62
2023/04/10 08:22:21;;;;;;;13.65;10.68;;;;;;;22.71;20.30;100733.47;5027019;28;20037;-62
2023/04/10 08:24:46;;;;;;;13.25;10.65;;;;;;;22.60;20.53;100739.34;5036003;28;20025;-63
2023/04/10 08:27:12;;;;;;;14.82;10.07;;;;;;;22.56;20.63;100738.00;5033239;28;20396;-63
2023/04/10 08:29:38;;;;;;;12.68;11.10;;;;;;;22.37;20.48;100740.13;5040265;28;20033;-63
2023/04/10 08:32:04;;;;;;;18.25;10.73;;;;;;;21.97;20.82;100710.19;5045290;28;20056;-63
2023/04/10 08:34:29;;;;;;;12.23;10.57;;;;;;;21.97;20.74;100740.16;5042449;28;20035;-62
2023/04/10 08:36:56;;;;;;;14.68;10.65;;;;;;;21.52;21.23;100701.63;5035359;28;20117;-62
2023/04/10 08:39:22;;;;;;;14.60;10.68;;;;;;;21.43;21.70;100738.06;5038112;28;20021;-63
2023/04/10 08:41:47;;;;;;;18.20;10.60;;;;;;;21.22;21.93;100740.31;5041948;28;20036;-65
2023/04/10 08:44:13;;;;;;;17.58;10.43;;;;;;;21.16;22.03;100742.88;5043201;28;20064;-63
2023/04/10 08:46:42;;;;;;;15.65;10.98;;;;;;;21.23;22.18;100747.47;5044208;28;20044;-63
2023/04/10 08:49:10;;;;;;;17.15;11.73;;;;;;;21.03;22.11;100736.09;5044675;28;20032;-63
2023/04/10 08:51:41;;;;;;;13.85;10.85;;;;;;;20.80;22.15;100708.69;5043072;28;20053;-66
2023/04/10 08:54:14;;;;;;;18.00;10.65;;;;;;;20.96;22.56;100735.03;5042912;28;20049;-63
2023/04/10 08:56:45;;;;;;;19.55;10.30;;;;;;;20.98;22.42;100733.03;5042622;28;20432;-64
2023/04/10 08:59:11;;;;;;;16.27;10.85;;;;;;;21.01;22.38;100727.25;5039689;28;20069;-64
2023/04/10 09:01:39;;;;;;;17.35;11.50;;;;;;;21.13;22.66;100724.16;5040643;28;20113;-64
2023/04/10 09:04:04;;;;;;;14.73;10.88;;;;;;;21.12;22.42;100722.47;5043139;28;20037;-63
2023/04/10 09:06:30;;;;;;;16.00;10.10;;;;;;;21.08;22.06;100722.81;5040948;28;20073;-63
2023/04/10 09:08:55;;;;;;;15.48;10.50;;;;;;;20.97;22.18;100725.03;5040319;28;20460;-64
2023/04/10 09:11:21;;;;;;;17.83;11.02;;;;;;;20.90;22.39;100720.25;5043409;28;20382;-64
2023/04/10 09:13:46;;;;;;;14.90;11.40;;;;;;;20.85;22.30;100728.06;5041407;28;20032;-64
2023/04/10 09:16:13;;;;;;;18.48;11.30;;;;;;;20.65;22.62;100733.81;5031766;28;20030;-64
2023/04/10 09:18:50;;;;;;;15.95;11.80;;;;;;;20.65;22.95;100727.50;5027224;28;20033;-62
2023/04/10 09:21:18;;;;;;;16.42;11.43;;;;;;;20.45;22.93;100727.81;5023848;28;20112;-63
2023/04/10 09:23:45;;;;;;;16.23;11.10;;;;;;;20.37;23.13;100722.38;5024684;28;20029;-64
2023/04/10 09:26:31;;;;;;;16.20;11.80;;;;;;;20.44;22.89;100717.97;5046044;28;20029;-65
2023/04/10 09:28:57;;;;;;;;;;;;;;;20.84;22.36;100725.53;5052332;28;20075;-69
2023/04/10 09:31:42;;;;;;;23.08;12.75;;;;;;;20.36;23.21;100723.38;5031152;28;20283;-63
2023/04/10 09:34:08;;;;;;;23.85;12.20;;;;;;;20.00;23.80;100718.16;5020903;28;20449;-65
2023/04/10 09:36:34;;;;;;;24.52;13.30;;;;;;;19.48;24.01;100684.63;5037873;28;20064;-62
2023/04/10 09:38:59;;;;;;;16.42;12.27;;;;;;;19.17;24.43;100688.69;5040399;28;20025;-65
2023/04/10 09:41:25;;;;;;;18.83;11.57;;;;;;;19.01;24.62;100711.09;5041793;28;20026;-64
2023/04/10 09:44:05;;;;;;;19.35;11.35;;;;;;;18.79;25.03;100693.44;5043724;28;20225;-64
2023/04/10 09:46:31;;;;;;;17.50;11.52;;;;;;;18.70;24.87;100710.66;5036308;28;20033;-64
2023/04/10 09:48:58;;;;;;;19.10;11.25;;;;;;;18.52;24.74;100711.50;5016853;28;20123;-64
2023/04/10 09:51:31;;;;;;;14.88;11.48;;;;;;;18.22;25.34;100703.56;5051285;28;20460;-64
2023/04/10 09:53:56;;;;;;;12.50;11.18;;;;;;;17.96;25.77;100702.56;5020637;28;20119;-65
2023/04/10 09:56:25;;;;;;;17.17;11.25;;;;;;;17.88;26.16;100712.31;5016425;28;20116;-63
2023/04/10 09:58:52;;;;;;;21.85;12.13;;;;;;;17.76;26.26;100708.94;5035373;28;20032;-66
2023/04/10 10:01:20;;;;;;;20.60;12.48;;;;;;;17.64;26.38;100710.97;5053275;28;20092;-64
2023/04/10 10:03:46;;;;;;;18.88;12.20;;;;;;;17.56;26.76;100702.72;5053964;28;20048;-66
2023/04/10 10:06:11;;;;;;;18.00;12.15;;;;;;;17.53;26.97;100705.72;5053431;28;20033;-66
2023/04/10 10:08:37;;;;;;;16.52;11.70;;;;;;;17.65;27.09;100709.09;5027058;28;20033;-66
2023/04/10 10:11:08;;;;;;;17.48;10.73;;;;;;;17.88;26.40;100711.44;5013563;28;20040;-65
2023/04/10 10:13:46;;;;;;;16.27;11.77;;;;;;;18.11;26.11;100706.50;5024582;28;20200;-64
2023/04/10 10:16:20;;;;;;;19.67;11.88;;;;;;;18.34;25.89;100706.09;5012073;28;20038;-66
2023/04/10 10:19:05;;;;;;;15.95;11.38;;;;;;;18.61;25.08;100707.03;5018223;28;20048;-63
2023/04/10 10:21:33;;;;;;;24.00;12.00;;;;;;;18.66;25.07;100707.41;5031456;28;20464;-65
2023/04/10 10:24:00;;;;;;;15.13;10.80;;;;;;;18.69;25.03;100706.22;5025181;28;20032;-67
2023/04/10 10:26:28;;;;;;;14.77;11.15;;;;;;;18.44;25.14;100706.84;5014324;28;20061;-65
2023/04/10 10:28:55;;;;;;;14.73;10.77;;;;;;;18.16;25.38;100677.09;5013145;28;20364;-67
2023/04/10 10:31:23;;;;;;;20.05;9.95;;;;;;;18.26;25.56;100700.56;5013154;28;20415;-66
2023/04/10 10:33:51;;;;;;;14.35;10.23;;;;;;;18.07;25.68;100665.31;5031000;28;20048;-66
2023/04/10 10:36:19;;;;;;;15.88;10.60;;;;;;;18.40;25.70;100699.16;5006328;28;20033;-67
2023/04/10 10:38:57;;;;;;;21.35;10.95;;;;;;;18.59;25.86;100695.47;5012578;28;20025;-66
2023/04/10 10:41:34;;;;;;;16.58;11.10;;;;;;;18.74;25.50;100695.78;5022960;28;20045;-67
2023/04/10 10:44:12;;;;;;;15.90;11.02;;;;;;;18.93;25.34;100692.03;5012466;28;20112;-67
2023/04/10 10:46:49;;;;;;;18.05;11.13;;;;;;;19.22;25.22;100693.63;5026945;28;20113;-68
2023/04/10 10:49:15;;;;;;;15.63;10.93;;;;;;;19.34;24.73;100678.78;5051630;28;20044;-67
2023/04/10 10:51:51;;;;;;;13.38;10.52;;;;;;;19.49;24.66;100687.19;5032032;28;20057;-66
2023/04/10 10:54:35;;;;;;;13.82;10.43;;;;;;;19.88;24.32;100691.25;5024024;28;20517;-65
2023/04/10 10:57:01;;;;;;;14.95;10.90;;;;;;;19.82;24.19;100670.19;5021526;28;20402;-66
2023/04/10 10:59:47;;;;;;;18.38;11.98;;;;;;;20.17;23.83;100687.31;5031281;28;20030;-65
2023/04/10 11:02:16;;;;;;;16.88;11.90;;;;;;;20.08;23.80;100693.75;5014406;28;20522;-65
2023/04/10 11:04:48;;;;;;;17.75;11.80;;;;;;;19.89;23.58;100683.94;5013769;28;20531;-66
2023/04/10 11:07:14;;;;;;;16.45;10.88;;;;;;;19.54;23.85;100697.56;5011680;28;20034;-65
2023/04/10 11:09:49;;;;;;;19.67;12.15;;;;;;;19.28;24.66;100687.53;5023139;28;20037;-64
2023/04/10 11:12:24;;;;;;;22.45;11.90;;;;;;;19.24;25.05;100691.59;5012360;28;20061;-65
2023/04/10 11:14:57;;;;;;;;;;;;;;;19.64;24.46;100686.56;5030026;28;20033;-66